Home > Products > Valid Products > MTR

000
SAUS43 KMQT 232252
MTRP59
METAR KP59 232251Z AUTO 21003KT 07/M08 A3012 RMK AO2 SLP209
T00671078 PWINO TSNO





000
SAUS43 KMQT 232157
MTRP53
METAR KP53 232156Z AUTO 00000KT 04/M03 A3014 RMK AO2 SLP214
T00391028 PWINO TSNO





000
SAUS43 KMQT 232153
MTRP59
METAR KP59 232151Z AUTO VRB04KT 07/M07 A3012 RMK AO2 SLP208
T00721067 PWINO TSNO





000
SAUS43 KMQT 232057
MTRP53
METAR KP53 232056Z AUTO 33003KT 04/M02 A3015 RMK AO2 SLP218
T00391022 58012 PWINO TSNO





000
SAUS43 KMQT 232054
MTRP59
METAR KP59 232051Z AUTO 00000KT 05/M03 A3013 RMK AO2 SLP212
T00501028 58012 PWINO TSNO





000
SAUS43 KMQT 231958
MTRP53
METAR KP53 231956Z AUTO 02004KT 05/M02 A3017 RMK AO2 SLP223
T00501017 PWINO TSNO





000
SAUS43 KMQT 231952
MTRP59
METAR KP59 231951Z AUTO 08003KT 04/M02 A3014 RMK AO2 SLP216
T00441022 PWINO TSNO





000
SAUS43 KMQT 231857
MTRP53
METAR KP53 231856Z AUTO 04009KT 04/M02 A3018 RMK AO2 SLP229
T00391017 PWINO TSNO





000
SAUS43 KMQT 231854
MTRP59
METAR KP59 231851Z AUTO 06004KT 04/M02 A3015 RMK AO2 SLP221
T00441022 PWINO TSNO





000
SAUS43 KMQT 231757
MTRP53
METAR KP53 231756Z AUTO 03003KT 04/M03 A3019 RMK AO2 SLP231
T00441028 10044 20000 52000 PWINO TSNO





000
SAUS43 KMQT 231752
MTRP59
METAR KP59 231751Z AUTO 03003KT 04/M03 A3016 RMK AO2 SLP224
T00441028 10044 20006 58001 PWINO TSNO





000
SAUS43 KMQT 231657
MTRP53
METAR KP53 231656Z AUTO 05008KT 03/M02 A3019 RMK AO2 SLP230
T00281022 PWINO TSNO





000
SAUS43 KMQT 231654
MTRP59
METAR KP59 231651Z AUTO 03003KT 03/M02 A3017 RMK AO2 SLP228
T00331022 PWINO TSNO





000
SAUS43 KMQT 231557
MTRP53
METAR KP53 231556Z AUTO 05006KT 02/M02 A3019 RMK AO2 SLP231
T00221017 PWINO FZRANO TSNO





000
SAUS43 KMQT 231554
MTRP59
METAR KP59 231551Z AUTO 01007KT 03/M02 A3018 RMK AO2 SLP229
T00281017 PWINO TSNO





000
SAUS43 KMQT 231457
MTRP53
METAR KP53 231456Z AUTO 03005KT 03/M02 A3019 RMK AO2 SLP230
T00281022 51006 PWINO TSNO





000
SAUS43 KMQT 231456
MTRP59
METAR KP59 231451Z AUTO 36009KT 03/M02 A3017 RMK AO2 SLP226
T00281022 50001 PWINO TSNO





000
SAUS43 KMQT 231357
MTRP53
METAR KP53 231356Z AUTO 00000KT 02/M03 A3019 RMK AO2 SLP230
T00171028 PWINO FZRANO TSNO





000
SAUS43 KMQT 231356
MTRP59
METAR KP59 231351Z AUTO 36008KT 03/M02 A3018 RMK AO2 SLP230
T00281022 PWINO TSNO





000
SAUS43 KMQT 231258
MTRP53
METAR KP53 231256Z AUTO 36003KT 01/M03 A3019 RMK AO2 SLP230
T00111033 PWINO FZRANO TSNO





000
SAUS43 KMQT 231256
MTRP59
METAR KP59 231251Z AUTO 00000KT 03/M03 A3018 RMK AO2 SLP228
T00281028 PWINO TSNO





000
SAUS43 KMQT 231204 COR
MTRP53
METAR KP53 231156Z AUTO 35003KT 00/M03 A3017 RMK AO2 SLP224
T00001033 10006 21033 53017 PWINO FZRANO TSNO





000
SAUS43 KMQT 231155
MTRP59
METAR KP59 231151Z AUTO 27004KT 01/M04 A3016 RMK AO2 SLP225
T00061039 10006 21017 51012 PWINO FZRANO TSNO





000
SAUS43 KMQT 231057
MTRP53
METAR KP53 231056Z AUTO 00000KT M03/M06 A3014 RMK AO2 SLP216
T10281056 PWINO FZRANO TSNO





000
SAUS43 KMQT 231056
MTRP59
METAR KP59 231051Z AUTO 26003KT M02/M04 A3015 RMK AO2 SLP223
T10171044 PWINO FZRANO TSNO





000
SAUS43 KMQT 230958
MTRP53
METAR KP53 230956Z AUTO 00000KT M03/M06 A3013 RMK AO2 SLP213
T10281056 PWINO FZRANO TSNO





000
SAUS43 KMQT 230956
MTRP59
METAR KP59 230951Z AUTO 27004KT M01/M04 A3014 RMK AO2 SLP219
T10111044 PWINO FZRANO TSNO





000
SAUS43 KMQT 230904 COR
MTRP53
METAR KP53 230856Z AUTO 31004KT M01/M03 A3012 RMK AO2 SLP207
T10061033 51004 PWINO FZRANO TSNO





000
SAUS43 KMQT 230901 COR
MTRP59
METAR KP59 230851Z AUTO 27003KT M01/M04 A3013 RMK AO2 SLP213
T10111044 50003 PWINO FZRANO TSNO





000
SAUS43 KMQT 230758
MTRP53
METAR KP53 230756Z AUTO 35004KT M01/M04 A3011 RMK AO2 SLP206
T10061039 PWINO FZRANO TSNO





000
SAUS43 KMQT 230755
MTRP59
METAR KP59 230751Z AUTO 29004KT 00/M04 A3013 RMK AO2 SLP214
T00001039 PWINO FZRANO TSNO





000
SAUS43 KMQT 230704 COR
MTRP53
METAR KP53 230656Z AUTO VRB04KT 00/M03 A3012 RMK AO2 SLP207
T00001033 PWINO FZRANO TSNO





000
SAUS43 KMQT 230655
MTRP59
METAR KP59 230651Z AUTO 00000KT M01/M04 A3013 RMK AO2 SLP213
T10111039 PWINO FZRANO TSNO





000
SAUS43 KMQT 230604 COR
MTRP53
METAR KP53 230556Z AUTO 34004KT 00/M03 A3011 RMK AO2 SLP203
T00001033 10017 20000 53014 PWINO FZRANO TSNO





000
SAUS43 KMQT 230600 COR
MTRP59
METAR KP59 230551Z AUTO 35005KT 00/M04 A3012 RMK AO2 SLP209
T00001039 10017 21011 53007 PWINO FZRANO TSNO





000
SAUS43 KMQT 230505 COR
MTRP53
METAR KP53 230456Z AUTO 35003KT 01/M03 A3009 RMK AO2 SLP197
T00061033 400500000 PWINO FZRANO TSNO





000
SAUS43 KMQT 230456
MTRP59
METAR KP59 230451Z AUTO 35005KT 00/M03 A3011 RMK AO2 SLP208
T00001033 400281011 PWINO FZRANO TSNO





000
SAUS43 KMQT 230357
MTRP53
METAR KP53 230356Z AUTO 31007KT 01/M03 A3007 RMK AO2 SLP189
T00061028 PWINO FZRANO TSNO





000
SAUS43 KMQT 230355
MTRP59
METAR KP59 230351Z AUTO 02003KT 00/M04 A3010 RMK AO2 SLP204
T00001039 PWINO FZRANO TSNO





000
SAUS43 KMQT 230305 COR
MTRP53
METAR KP53 230256Z AUTO 32012KT 01/M03 A3007 RMK AO2 SLP189
T00061028 51010 PWINO FZRANO TSNO





000
SAUS43 KMQT 230259 COR
MTRP59
METAR KP59 230251Z AUTO 00000KT M01/M04 A3010 RMK AO2 SLP203
T10061039 53009 PWINO FZRANO TSNO





000
SAUS43 KMQT 230157
MTRP53
METAR KP53 230156Z AUTO 32012KT 01/M03 A3006 RMK AO2 SLP186
T00061028 PWINO FZRANO TSNO





000
SAUS43 KMQT 230156
MTRP59
METAR KP59 230151Z AUTO VRB03KT 01/M03 A3008 RMK AO2 SLP195
T00061033 PWINO FZRANO TSNO





000
SAUS43 KMQT 230057
MTRP53
METAR KP53 230056Z AUTO 33012KT 02/M02 A3005 RMK AO2 SLP183
T00171022 PWINO FZRANO TSNO





000
SAUS43 KMQT 230056
MTRP59
METAR KP59 230051Z AUTO 34005KT 02/M03 A3008 RMK AO2 SLP196
T00171033 PWINO FZRANO TSNO





000
SAUS43 KMQT 230004 COR
MTRP53
METAR KP53 222356Z AUTO 34013KT 02/M02 A3003 RMK AO2 SLP178
T00171022 10022 20017 52010 PWINO FZRANO TSNO





000
SAUS43 KMQT 222358 COR
MTRP59
METAR KP59 222351Z AUTO 35008KT 02/M02 A3007 RMK AO2 SLP193
T00171022 10022 20017 53007 PWINO FZRANO TSNO





000
SAUS43 KMQT 222305 COR
MTRP53
METAR KP53 222256Z AUTO 33015G22KT 02/M02 A3003 RMK AO2 SLP176
T00171022 PWINO FZRANO TSNO





000
SAUS43 KMQT 222255
MTRP59
METAR KP59 222251Z AUTO 36009KT 02/M02 A3006 RMK AO2 SLP190
T00221017 PWINO FZRANO TSNO





000
SAUS43 KMQT 222205 COR
MTRP53
METAR KP53 222156Z AUTO 33017G24KT 02/M02 A3001 RMK AO2 SLP170
T00171022 PWINO FZRANO TSNO





000
SAUS43 KMQT 222200 COR
MTRP59
METAR KP59 222151Z AUTO 04006KT 02/M02 A3005 RMK AO2 SLP185
T00221017 PWINO FZRANO TSNO





000
SAUS43 KMQT 222057
MTRP53
METAR KP53 222056Z AUTO 33018G23KT 02/M02 A3000 RMK AO2 SLP168
T00221022 52013 PWINO FZRANO TSNO





000
SAUS43 KMQT 222056
MTRP59
METAR KP59 222051Z AUTO 01010KT 02/M02 A3005 RMK AO2 SLP184
T00221017 53012 PWINO FZRANO TSNO





000
SAUS43 KMQT 221958
MTRP53
METAR KP53 221956Z AUTO 34015G24KT 02/M02 A2999 RMK AO2 SLP163
T00171017 PWINO FZRANO TSNO





000
SAUS43 KMQT 221956
MTRP59
METAR KP59 221951Z AUTO 01012KT 02/M02 A3004 RMK AO2 SLP182
T00171017 PWINO FZRANO TSNO





000
SAUS43 KMQT 221904 COR
MTRP53
METAR KP53 221856Z AUTO 33014G23KT 02/M02 A2998 RMK AO2 SLP159
T00171022 PWINO FZRANO TSNO





000
SAUS43 KMQT 221855
MTRP59
METAR KP59 221851Z AUTO 01014KT 02/M02 A3002 RMK AO2 SLP176
T00171022 PWINO FZRANO TSNO





000
SAUS43 KMQT 221805 COR
MTRP53
METAR KP53 221756Z AUTO 34017G22KT 02/M02 A2997 RMK AO2 PK WND
34026/1731 SLP154 T00171022 10022 20017 53015 PWINO FZRANO TSNO





000
SAUS43 KMQT 221804 COR
MTRP53
METAR KP53 221756Z AUTO 34017G22KT 02/M02 A2997 RMK AO2 PK WND
34026/1731 SLP154 T00171022 10022 20017 53015 PWINO FZRANO TSNO





000
SAUS43 KMQT 221759 COR
MTRP53
METAR KP53 221756Z AUTO 34017G22KT 02/M02 A2997 RMK AO2 PK WND
34026/1731 SLP154 T00171022 10022 20017 53015 PWINO FZRANO TSNO





000
SAUS43 KMQT 221758
MTRP53
METAR KP53 221756Z AUTO 34017G22KT 02/M02 A2997 RMK AO2 PK WND
34026/1731 SLP154 T00171022 10022 20017 53015 PWINO FZRANO TSNO





000
SAUS43 KMQT 221755
MTRP59
METAR KP59 221751Z AUTO 02014KT 02/M02 A3001 RMK AO2 SLP172
T00171022 10017 20011 51015 PWINO FZRANO TSNO





000
SAUS43 KMQT 221705 COR
MTRP53
METAR KP53 221656Z AUTO 33014G24KT 02/M02 A2996 RMK AO2 PK WND
33030/1622 SLP150 T00171022 PWINO FZRANO TSNO





000
SAUS43 KMQT 221700 COR
MTRP59
METAR KP59 221651Z AUTO 01015KT 01/M02 A3000 RMK AO2 SLP168
T00111017 PWINO FZRANO TSNO





000
SAUS43 KMQT 221558
MTRP53
METAR KP53 221556Z AUTO 32015G29KT 02/M02 A2993 RMK AO2 PK WND
32029/1552 SLP140 T00171022 PWINO FZRANO TSNO





000
SAUS43 KMQT 221555
MTRP59
METAR KP59 221551Z AUTO 01015KT 01/M02 A2999 RMK AO2 SLP164
T00111017 PWINO FZRANO TSNO





000
SAUS43 KMQT 221504 COR
MTRP53
METAR KP53 221456Z AUTO 33013G22KT 02/M02 A2992 RMK AO2 SLP138
T00171017 53016 PWINO FZRANO TSNO





000
SAUS43 KMQT 221455
MTRP59
METAR KP59 221451Z AUTO 36016KT 01/M02 A2997 RMK AO2 SLP158
T00111017 53008 PWINO FZRANO TSNO





000
SAUS43 KMQT 221357
MTRP53
METAR KP53 221356Z AUTO 33013G24KT 02/M02 A2990 RMK AO2 SLP131
T00171017 PWINO FZRANO TSNO





000
SAUS43 KMQT 221355
MTRP59
METAR KP59 221351Z AUTO 36012KT 01/M02 A2996 RMK AO2 SLP156
T00111017 PWINO FZRANO TSNO





000
SAUS43 KMQT 221257
MTRP53
METAR KP53 221256Z AUTO 33010G19KT 02/M02 A2989 RMK AO2 SLP127
T00171017 PWINO FZRANO TSNO





000
SAUS43 KMQT 221255
MTRP59
METAR KP59 221251Z AUTO 36015KT 01/M02 A2994 RMK AO2 SLP148
T00111017 PWINO FZRANO TSNO





000
SAUS43 KMQT 221205 COR
MTRP53
METAR KP53 221156Z AUTO 33013G21KT 02/M02 A2987 RMK AO2 PK WND
33029/1122 SLP119 T00171017 10039 20017 53016 PWINO FZRANO TSNO





000
SAUS43 KMQT 221158 COR
MTRP53
METAR KP53 221156Z AUTO 33013G21KT 02/M02 A2987 RMK AO2 PK WND
33029/1122 SLP119 T00171017 10039 20017 53016 PWINO FZRANO TSNO





000
SAUS43 KMQT 221157
MTRP53
METAR KP53 221156Z AUTO 33013G21KT 02/M02 A2987 RMK AO2 PK WND
33029/1122 SLP119 T00171017 10039 20017 53016 PWINO FZRANO TSNO





000
SAUS43 KMQT 221156
MTRP59
METAR KP59 221151Z AUTO 36013KT 01/M02 A2995 RMK AO2 SLP149
T00111017 10022 20011 52021 PWINO FZRANO TSNO





000
SAUS43 KMQT 221058
MTRP53
METAR KP53 221056Z AUTO 33019G29KT 02/M01 A2984 RMK AO2 PK WND
32031/1027 SLP110 T00171011 PWINO FZRANO TSNO





000
SAUS43 KMQT 221056
MTRP59
METAR KP59 221051Z AUTO 35013KT 01/M01 A2993 RMK AO2 SLP140
T00111011 PWINO FZRANO TSNO





000
SAUS43 KMQT 220957
MTRP53
METAR KP53 220956Z AUTO 33020G28KT 02/M01 A2983 RMK AO2 PK WND
33029/0904 SLP107 T00221011 PWINO FZRANO TSNO $





000
SAUS43 KMQT 220956
MTRP59
METAR KP59 220951Z AUTO 01017KT 01/M02 A2990 RMK AO2 PK WND
01026/0858 SLP135 T00111017 PWINO FZRANO TSNO





000
SAUS43 KMQT 220857
MTRP53
METAR KP53 220856Z AUTO 32020G31KT 02/M02 A2982 RMK AO2 PK WND
31031/0849 SLP103 T00221017 55002 PWINO FZRANO TSNO $





000
SAUS43 KMQT 220856
MTRP59
METAR KP59 220851Z AUTO 36019KT 02/M02 A2988 RMK AO2 SLP126
T00171017 53004 PWINO FZRANO TSNO





000
SAUS43 KMQT 220804 COR
MTRP53
METAR KP53 220756Z AUTO 32016G23KT 03/M02 A2982 RMK AO2 PK WND
31031/0743 SLP103 T00281017 PWINO TSNO $





000
SAUS43 KMQT 220755
MTRP59
METAR KP59 220751Z AUTO 36016KT 02/M01 A2988 RMK AO2 SLP125
T00171011 PWINO FZRANO TSNO





000
SAUS43 KMQT 220657
MTRP53
METAR KP53 220656Z AUTO 32018G27KT 03/M02 A2981 RMK AO2 PK WND
31027/0652 SLP102 T00331022 PWINO TSNO $





000
SAUS43 KMQT 220656
MTRP59
METAR KP59 220651Z AUTO 35015KT 02/M01 A2986 RMK AO2 SLP116
T00171011 PWINO FZRANO TSNO





000
SAUS43 KMQT 220559
MTRP53
METAR KP53 220556Z AUTO 33011G21KT 04/M02 A2983 RMK AO2 PK WND
33027/0504 SLP104 T00391022 10128 20039 55005 PWINO TSNO $





000
SAUS43 KMQT 220555
MTRP59
METAR KP59 220551Z AUTO 34011G17KT 02/M01 A2987 RMK AO2 SLP119
T00221011 10050 20022 53003 PWINO FZRANO TSNO





000
SAUS43 KMQT 220457
MTRP53
METAR KP53 220456Z AUTO 32013G29KT 04/M02 A2983 RMK AO2 PK WND
31029/0448 SLP103 T00441022 401780006 PWINO TSNO $





000
SAUS43 KMQT 220456
MTRP59
METAR KP59 220451Z AUTO 33013G22KT 03/M02 A2986 RMK AO2 SLP115
T00281017 401441006 PWINO TSNO





000
SAUS43 KMQT 220358
MTRP53
METAR KP53 220356Z AUTO 33015G25KT 05/M02 A2983 RMK AO2 PK WND
32032/0329 SLP105 T00501017 PWINO TSNO $





000
SAUS43 KMQT 220356
MTRP59
METAR KP59 220351Z AUTO 34013G21KT 03/M02 A2986 RMK AO2 SLP116
T00331017 PWINO TSNO





000
SAUS43 KMQT 220304 COR
MTRP53
METAR KP53 220256Z AUTO 31016G26KT 06/M01 A2984 RMK AO2 PK WND
33030/0203 SLP110 T00561011 51029 PWINO TSNO $





000
SAUS43 KMQT 220257
MTRP59
METAR KP59 220251Z AUTO 34014G21KT 04/M02 A2986 RMK AO2 SLP116
T00391017 51020 PWINO TSNO





000
SAUS43 KMQT 220159 COR
MTRP59
METAR KP59 220151Z AUTO 34015G22KT 04/M01 A2985 RMK AO2 SLP114
T00441011 PWINO TSNO





000
SAUS43 KMQT 220157
MTRP53
METAR KP53 220156Z AUTO 32020G28KT 06/M01 A2984 RMK AO2 PK WND
32030/0143 SLP109 T00611006 PWINO TSNO $





000
SAUS43 KMQT 220104 COR
MTRP53
METAR KP53 220056Z AUTO 33009KT 06/01 A2979 RMK AO2 SLP092 T00610006
PWINO TSNO $





000
SAUS43 KMQT 220055
MTRP59
METAR KP59 220051Z AUTO 34015G22KT 05/M01 A2983 RMK AO2 PK WND
34026/0032 SLP107 T00501006 PWINO TSNO





000
SAUS43 KMQT 220004 COR
MTRP53
METAR KP53 212356Z AUTO 33007KT 13/03 A2976 RMK AO2 SLP081 T01280028
10178 20039 53011 PWINO TSNO $





000
SAUS43 KMQT 212359 COR
MTRP59
METAR KP59 212351Z AUTO 34018G25KT 05/00 A2980 RMK AO2 PK WND
34028/2329 SLP098 T00500000 10144 20028 53017 PWINO TSNO





000
SAUS43 KMQT 212305 COR
MTRP53
METAR KP53 212256Z AUTO 00000KT 05/01 A2975 RMK AO2 SLP080 T00500011
PWINO TSNO $





000
SAUS43 KMQT 212255
MTRP59
METAR KP59 212251Z AUTO 34011G19KT 09/00 A2975 RMK AO2 SLP082
T00940000 PWINO TSNO





000
SAUS43 KMQT 212157
MTRP53
METAR KP53 212156Z AUTO 00000KT 08/03 A2971 RMK AO2 SLP067 T00830028
PWINO TSNO $





000
SAUS43 KMQT 212156
MTRP59
METAR KP59 212151Z AUTO 34008G18KT 06/00 A2975 RMK AO2 WSHFT 2056
SLP083 T00560000 PWINO TSNO





000
SAUS43 KMQT 212121
MTRP59
SPECI KP59 212116Z AUTO 35012KT 06/M01 A2975 RMK AO2 WSHFT 2056
PWINO TSNO





000
SAUS43 KMQT 212100 COR
MTRP59
METAR KP59 212051Z AUTO 00000KT 07/01 A2975 RMK AO2 SLP081 T00670006
56008 PWINO TSNO





000
SAUS43 KMQT 212057
MTRP53
METAR KP53 212056Z AUTO 00000KT 09/02 A2972 RMK AO2 SLP071 T00890022
58024 PWINO TSNO $





000
SAUS43 KMQT 212004 COR
MTRP53
METAR KP53 211956Z AUTO 00000KT 07/01 A2975 RMK AO2 SLP080 T00670011
PWINO TSNO $





000
SAUS43 KMQT 212000 COR
MTRP59
METAR KP59 211951Z AUTO 03003KT 06/01 A2976 RMK AO2 SLP085 T00560006
PWINO TSNO





000
SAUS43 KMQT 211903 COR
MTRP53
METAR KP53 211856Z AUTO 00000KT 06/01 A2978 RMK AO2 SLP090 T00560011
PWINO TSNO $





000
SAUS43 KMQT 211900 COR
MTRP59
METAR KP59 211851Z AUTO VRB05KT 14/00 A2975 RMK AO2 SLP077 T01390000
PWINO TSNO





000
SAUS43 KMQT 211805 COR
MTRP53
METAR KP53 211756Z AUTO 19007KT 17/04 A2980 RMK AO2 SLP093 T01720039
10178 20011 57024 PWINO TSNO





000
SAUS43 KMQT 211756
MTRP59
METAR KP59 211751Z AUTO VRB05KT 13/M01 A2977 RMK AO2 SLP087
T01331006 10139 20044 58017 PWINO TSNO





000
SAUS43 KMQT 211657
MTRP53
METAR KP53 211656Z AUTO VRB05KT 16/04 A2982 RMK AO2 SLP100 T01610044
PWINO TSNO





000
SAUS43 KMQT 211656
MTRP59
METAR KP59 211651Z AUTO 22008G14KT 13/00 A2979 RMK AO2 SLP093
T01330000 PWINO TSNO





000
SAUS43 KMQT 211558
MTRP53
METAR KP53 211556Z AUTO 18007KT 13/06 A2984 RMK AO2 SLP109 T01330056
PWINO TSNO





000
SAUS43 KMQT 211556
MTRP59
METAR KP59 211551Z AUTO 24009KT 12/01 A2981 RMK AO2 SLP099 T01220011
PWINO TSNO





000
SAUS43 KMQT 211504 COR
MTRP53
METAR KP53 211456Z AUTO 19005KT 10/05 A2987 RMK AO2 SLP118 T01000050
58018 PWINO TSNO





000
SAUS43 KMQT 211500 COR
MTRP59
METAR KP59 211451Z AUTO 24010G16KT 11/01 A2983 RMK AO2 SLP104
T01110011 56019 PWINO TSNO





000
SAUS43 KMQT 211405 COR
MTRP53
METAR KP53 211356Z AUTO 19006KT 07/03 A2989 RMK AO2 SLP125 T00720033
PWINO TSNO





000
SAUS43 KMQT 211400 COR
MTRP59
METAR KP59 211351Z AUTO 24010G15KT 08/03 A2984 RMK AO2 SLP112
T00780028 PWINO TSNO





000
SAUS43 KMQT 211257
MTRP53
METAR KP53 211256Z AUTO 20004KT 04/02 A2991 RMK AO2 SLP133 T00440022
PWINO TSNO





000
SAUS43 KMQT 211256
MTRP59
METAR KP59 211251Z AUTO 23014G19KT 06/01 A2986 RMK AO2 SLP119
T00610006 PWINO TSNO





000
SAUS43 KMQT 211158
MTRP53
METAR KP53 211156Z AUTO 19003KT 01/M01 A2992 RMK AO2 SLP137
T00111006 10039 20006 55010 PWINO FZRANO TSNO





000
SAUS43 KMQT 211155
MTRP59
METAR KP59 211151Z AUTO 23007KT 04/M01 A2988 RMK AO2 SLP126
T00441006 10061 21006 58014 PWINO TSNO





000
SAUS43 KMQT 211104 COR
MTRP53
METAR KP53 211056Z AUTO 19004KT 01/M01 A2992 RMK AO2 SLP136
T00111011 PWINO FZRANO TSNO $





000
SAUS43 KMQT 211054
MTRP59
METAR KP59 211051Z AUTO 22004KT 00/M02 A2990 RMK AO2 SLP135
T00001017 PWINO FZRANO TSNO $





000
SAUS43 KMQT 210957
MTRP53
METAR KP53 210956Z AUTO 19004KT 01/M01 A2994 RMK AO2 SLP143
T00111006 PWINO FZRANO TSNO $





000
SAUS43 KMQT 210956
MTRP59
METAR KP59 210951Z AUTO 24005KT 00/M02 A2992 RMK AO2 SLP142
T00001017 PWINO FZRANO TSNO $





000
SAUS43 KMQT 210904 COR
MTRP53
METAR KP53 210856Z AUTO 19004KT 01/M01 A2995 RMK AO2 SLP146
T00111006 56009 PWINO FZRANO TSNO $





000
SAUS43 KMQT 210855
MTRP59
METAR KP59 210851Z AUTO 23004KT 03/00 A2992 RMK AO2 SLP141 T00280000
58014 PWINO TSNO $





000
SAUS43 KMQT 210758
MTRP59
METAR KP59 210751Z AUTO 27003KT 01/M01 A2995 RMK AO2 SLP150
T00111006 PWINO FZRANO TSNO $





000
SAUS43 KMQT 210758
MTRP53
METAR KP53 210756Z AUTO 18003KT 01/M01 A2996 RMK AO2 SLP150
T00111006 PWINO FZRANO TSNO $





000
SAUS43 KMQT 210704 COR
MTRP53
METAR KP53 210656Z AUTO 19007KT 03/01 A2996 RMK AO2 SLP150 T00280011
PWINO TSNO $





000
SAUS43 KMQT 210656
MTRP59
METAR KP59 210651Z AUTO 25005KT 04/02 A2996 RMK AO2 SLP152 T00440017
PWINO TSNO $





000
SAUS43 KMQT 210604 COR
MTRP53
METAR KP53 210556Z AUTO 19007KT 04/02 A2998 RMK AO2 SLP156 T00390022
10106 20022 56010 PWINO TSNO $





000
SAUS43 KMQT 210559 COR
MTRP59
METAR KP59 210551Z AUTO 24006KT 03/01 A2996 RMK AO2 SLP154 T00330006
10072 20011 56010 PWINO TSNO $





000
SAUS43 KMQT 210505 COR
MTRP53
METAR KP53 210456Z AUTO 21003KT 04/03 A2999 RMK AO2 SLP160 T00390028
401330028 PWINO TSNO $





000
SAUS43 KMQT 210455
MTRP59
METAR KP59 210451Z AUTO 00000KT 03/01 A2997 RMK AO2 SLP156 T00280006
401220011 PWINO TSNO $





000
SAUS43 KMQT 210404 COR
MTRP53
METAR KP53 210356Z AUTO 18006KT 05/03 A2999 RMK AO2 SLP161 T00500033
PWINO TSNO $





000
SAUS43 KMQT 210400 COR
MTRP59
METAR KP59 210351Z AUTO 26003KT 07/02 A2998 RMK AO2 SLP159 T00670022
PWINO TSNO $





000
SAUS43 KMQT 210257
MTRP53
METAR KP53 210256Z AUTO 19007KT 05/03 A3001 RMK AO2 SLP168 T00500033
50000 PWINO TSNO $





000
SAUS43 KMQT 210256
MTRP59
METAR KP59 210251Z AUTO VRB03KT 05/02 A2999 RMK AO2 SLP164 T00500017
58003 PWINO TSNO $





000
SAUS43 KMQT 210205 COR
MTRP53
METAR KP53 210156Z AUTO 19005KT 06/03 A3003 RMK AO2 SLP173 T00610033
PWINO TSNO $





000
SAUS43 KMQT 210155
MTRP59
METAR KP59 210151Z AUTO 00000KT 01/M01 A3000 RMK AO2 SLP166
T00111011 PWINO FZRANO TSNO $





000
SAUS43 KMQT 210058
MTRP53
METAR KP53 210056Z AUTO 19004KT 08/04 A3002 RMK AO2 SLP172 T00830039
PWINO TSNO $





000
SAUS43 KMQT 210055
MTRP59
METAR KP59 210051Z AUTO 00000KT 03/00 A3000 RMK AO2 SLP166 T00280000
PWINO TSNO $





000
SAUS43 KMQT 210004 COR
MTRP53
METAR KP53 202356Z AUTO 18006KT 11/04 A3001 RMK AO2 SLP167 T01060044
10133 20100 55002 PWINO TSNO $





000
SAUS43 KMQT 202359 COR
MTRP59
METAR KP59 202351Z AUTO 00000KT 04/01 A3000 RMK AO2 SLP166 T00440006
10056 20033 55002 PWINO TSNO $





    US Dept of Commerce
    National Oceanic and Atmospheric Administration
    National Weather Service
    1325 East West Highway
    Silver Spring, MD 20910
    Page Author: NWS Internet Services Team
Disclaimer
Information Quality
Credits
Glossary
Privacy Policy
Freedom of Information Act (FOIA)
About Us
Career Opportunities